createdAt,value
2022-11-15T00:04:55.827Z,16.60
2022-11-15T00:09:57.447Z,16.60
2022-11-15T00:14:59.003Z,16.60
2022-11-15T00:20:00.691Z,16.60
2022-11-15T00:25:02.483Z,16.60
2022-11-15T00:30:04.227Z,16.60
2022-11-15T00:35:06.137Z,16.60
2022-11-15T00:40:08.555Z,16.50
2022-11-15T00:45:10.531Z,16.50
2022-11-15T00:50:15.129Z,16.50
2022-11-15T00:55:18.044Z,16.50
2022-11-15T01:00:19.935Z,16.50
2022-11-15T01:05:21.740Z,16.50
2022-11-15T01:10:23.990Z,16.50
2022-11-15T01:15:25.660Z,16.50
2022-11-15T01:20:27.213Z,16.50
2022-11-15T01:25:29.005Z,16.50
2022-11-15T01:30:30.610Z,16.50
2022-11-15T01:35:32.334Z,16.40
2022-11-15T01:40:34.090Z,16.40
2022-11-15T01:45:35.756Z,16.40
2022-11-15T01:50:37.538Z,16.40
2022-11-15T01:55:39.299Z,16.40
2022-11-15T02:06:01.237Z,16.40
2022-11-15T02:11:05.153Z,16.40
2022-11-15T02:16:09.553Z,16.40
2022-11-15T02:21:15.773Z,16.40
2022-11-15T02:26:37.967Z,16.40
2022-11-15T02:32:04.335Z,16.40
2022-11-15T02:37:18.559Z,16.40
2022-11-15T02:42:55.454Z,16.30
2022-11-15T02:47:59.000Z,16.30
2022-11-15T02:53:00.600Z,16.30
2022-11-15T02:58:20.870Z,16.30
2022-11-15T03:03:30.218Z,16.40
2022-11-15T03:08:56.651Z,16.50
2022-11-15T03:14:17.146Z,16.50
2022-11-15T03:19:39.105Z,16.50
2022-11-15T03:24:42.075Z,16.50
2022-11-15T03:29:47.058Z,16.50
2022-11-15T03:34:51.063Z,16.40
2022-11-15T03:39:52.623Z,16.40
2022-11-15T03:44:57.940Z,16.40
2022-11-15T03:50:02.116Z,16.40
2022-11-15T03:55:04.705Z,16.40
2022-11-15T04:00:06.659Z,16.40
2022-11-15T04:05:08.477Z,16.30
2022-11-15T04:10:11.405Z,16.30
2022-11-15T04:15:14.196Z,16.30
2022-11-15T04:20:41.748Z,16.30
2022-11-15T04:25:44.690Z,16.30
2022-11-15T04:30:46.590Z,16.20
2022-11-15T04:36:08.141Z,16.20
2022-11-15T04:41:09.678Z,16.20
2022-11-15T04:46:11.312Z,16.20
2022-11-15T04:51:13.104Z,16.20
2022-11-15T04:56:14.718Z,16.30
2022-11-15T05:01:16.866Z,16.40
2022-11-15T05:06:18.605Z,16.40
2022-11-15T05:11:21.405Z,16.40
2022-11-15T05:16:23.082Z,16.40
2022-11-15T05:21:24.742Z,16.40
2022-11-15T05:26:26.811Z,16.40
2022-11-15T05:31:28.774Z,16.40
2022-11-15T05:36:32.793Z,16.40
2022-11-15T05:41:36.735Z,16.40
2022-11-15T05:46:38.513Z,16.40
2022-11-15T05:51:40.824Z,16.50
2022-11-15T05:56:42.559Z,16.60
2022-11-15T06:01:44.668Z,16.70
2022-11-15T06:06:46.644Z,16.70
2022-11-15T06:11:49.156Z,16.70
2022-11-15T06:16:50.735Z,16.60
2022-11-15T06:21:52.369Z,16.60
2022-11-15T06:26:56.464Z,16.60
2022-11-15T06:31:58.160Z,16.60
2022-11-15T06:36:59.934Z,16.60
2022-11-15T06:42:01.642Z,16.60
2022-11-15T06:47:03.416Z,16.60
2022-11-15T06:52:05.278Z,16.60
2022-11-15T06:57:07.058Z,16.60
2022-11-15T07:02:17.630Z,16.60
2022-11-15T07:07:19.487Z,16.60
2022-11-15T07:12:21.703Z,16.60
2022-11-15T07:17:23.462Z,16.60
2022-11-15T07:22:25.688Z,16.60
2022-11-15T07:27:27.839Z,16.60
2022-11-15T07:32:32.762Z,16.60
2022-11-15T07:37:34.679Z,16.60
2022-11-15T07:42:54.859Z,16.50
2022-11-15T07:47:57.444Z,16.50
2022-11-15T07:53:00.375Z,16.50
2022-11-15T07:58:05.890Z,16.40
2022-11-15T08:03:11.598Z,16.40
2022-11-15T08:08:13.231Z,16.40
2022-11-15T08:13:15.078Z,16.40
2022-11-15T08:18:17.692Z,16.40
2022-11-15T08:23:19.473Z,16.40
2022-11-15T08:28:21.964Z,16.40
2022-11-15T08:33:23.579Z,16.40
2022-11-15T08:38:25.803Z,16.40
2022-11-15T08:43:27.616Z,16.30
2022-11-15T08:48:31.649Z,16.40
2022-11-15T08:53:34.764Z,16.30
2022-11-15T08:58:36.911Z,16.30
2022-11-15T09:03:40.640Z,16.30
2022-11-15T09:08:49.541Z,16.30
2022-11-15T09:13:51.256Z,16.30
2022-11-15T09:18:53.653Z,16.30
2022-11-15T09:23:55.611Z,16.20
2022-11-15T09:28:57.389Z,16.20
2022-11-15T09:33:59.011Z,16.20
2022-11-15T09:39:01.086Z,16.20
2022-11-15T09:44:14.916Z,16.20
2022-11-15T09:49:17.074Z,16.20
2022-11-15T09:54:52.322Z,16.20
2022-11-15T10:00:38.990Z,16.20
2022-11-15T10:05:30.541Z,16.20
2022-11-15T10:11:00.584Z,16.20
2022-11-15T10:16:18.560Z,16.20
2022-11-15T10:21:26.581Z,16.30
2022-11-15T10:26:29.223Z,16.30
2022-11-15T10:31:30.990Z,16.30
2022-11-15T10:36:33.019Z,16.30
2022-11-15T10:41:41.919Z,16.30
2022-11-15T10:46:47.626Z,16.30
2022-11-15T10:51:51.872Z,16.20
2022-11-15T10:56:55.361Z,16.30
2022-11-15T11:01:57.186Z,16.30
2022-11-15T11:06:59.672Z,16.30
2022-11-15T11:12:02.254Z,16.30
2022-11-15T11:17:06.919Z,16.30
2022-11-15T11:22:20.514Z,16.30
2022-11-15T11:27:27.678Z,16.30
2022-11-15T11:32:43.936Z,16.30
2022-11-15T11:38:08.862Z,16.30
2022-11-15T11:43:16.790Z,16.30
2022-11-15T11:48:27.912Z,16.30
2022-11-15T11:53:37.208Z,16.30
2022-11-15T11:58:40.675Z,16.30
2022-11-15T12:03:44.927Z,16.40
2022-11-15T12:09:04.950Z,16.40
2022-11-15T12:14:11.648Z,16.40
2022-11-15T12:19:13.312Z,16.40
2022-11-15T12:24:22.783Z,16.40
2022-11-15T12:29:30.195Z,16.40
2022-11-15T12:34:43.099Z,16.40
2022-11-15T12:40:07.971Z,16.40
2022-11-15T12:45:29.789Z,16.40
2022-11-15T12:50:56.811Z,16.40
2022-11-15T12:56:04.500Z,16.40
2022-11-15T13:01:07.895Z,16.40
2022-11-15T13:06:10.092Z,16.40
2022-11-15T13:11:30.529Z,16.40
2022-11-15T13:16:32.175Z,16.40
2022-11-15T13:21:52.769Z,16.40
2022-11-15T13:26:54.378Z,16.30
2022-11-15T13:31:56.762Z,16.30
2022-11-15T13:36:58.748Z,16.30
2022-11-15T13:42:00.960Z,16.30
2022-11-15T13:47:04.029Z,16.30
2022-11-15T13:52:07.120Z,16.30
2022-11-15T13:57:38.067Z,16.30
2022-11-15T14:02:40.193Z,16.30
2022-11-15T14:07:53.386Z,16.30
2022-11-15T14:12:55.425Z,16.30
2022-11-15T14:17:57.237Z,16.30
2022-11-15T14:23:00.439Z,16.30
2022-11-15T14:28:09.622Z,16.30
2022-11-15T14:33:19.385Z,16.30
2022-11-15T14:38:21.023Z,16.30
2022-11-15T14:43:22.554Z,16.20
2022-11-15T14:48:24.312Z,16.30
2022-11-15T14:53:25.959Z,16.20
2022-11-15T14:58:27.693Z,16.20
2022-11-15T15:03:29.469Z,16.20
2022-11-15T15:08:31.719Z,16.20
2022-11-15T15:13:33.756Z,16.20
2022-11-15T15:18:35.529Z,16.20
2022-11-15T15:23:37.178Z,16.20
2022-11-15T15:28:40.846Z,16.20
2022-11-15T15:33:42.798Z,16.20
2022-11-15T15:38:47.782Z,16.10
2022-11-15T15:43:49.604Z,16.20
2022-11-15T15:48:51.511Z,16.10
2022-11-15T15:53:58.007Z,16.10
2022-11-15T15:58:59.667Z,16.10
2022-11-15T16:04:01.380Z,16.10
2022-11-15T16:09:19.474Z,16.10
2022-11-15T16:14:21.471Z,16.10
2022-11-15T16:19:23.087Z,16.10
2022-11-15T16:24:24.920Z,16.10
2022-11-15T16:29:27.040Z,16.10
2022-11-15T16:34:31.158Z,16.10
2022-11-15T16:39:34.640Z,16.10
2022-11-15T16:44:36.392Z,16.10
2022-11-15T16:49:38.082Z,16.30
2022-11-15T16:54:39.921Z,16.50
2022-11-15T16:59:41.604Z,16.70
2022-11-15T17:04:43.211Z,16.90
2022-11-15T17:09:44.953Z,17.10
2022-11-15T17:14:47.098Z,17.20
2022-11-15T17:19:48.761Z,17.30
2022-11-15T17:24:50.463Z,17.40
2022-11-15T17:29:52.155Z,17.50
2022-11-15T17:34:53.817Z,17.60
2022-11-15T17:39:55.552Z,17.70
2022-11-15T17:44:57.282Z,17.80
2022-11-15T17:49:59.073Z,17.80
2022-11-15T17:55:00.859Z,18.00
2022-11-15T18:00:02.704Z,18.20
2022-11-15T18:05:04.479Z,18.30
2022-11-15T18:10:06.240Z,18.30
2022-11-15T18:15:08.028Z,18.20
2022-11-15T18:20:10.095Z,18.20
2022-11-15T18:25:12.301Z,18.10
2022-11-15T18:30:14.101Z,18.30
2022-11-15T18:35:15.855Z,18.40
2022-11-15T18:40:17.890Z,18.50
2022-11-15T18:45:24.010Z,18.50
2022-11-15T18:50:25.958Z,18.50
2022-11-15T18:55:27.788Z,18.60
2022-11-15T19:00:29.459Z,18.60
2022-11-15T19:05:31.288Z,18.60
2022-11-15T19:10:34.159Z,18.70
2022-11-15T19:15:35.771Z,18.70
2022-11-15T19:20:37.426Z,18.80
2022-11-15T19:25:39.250Z,18.80
2022-11-15T19:30:40.970Z,18.80
2022-11-15T19:35:42.600Z,18.80
2022-11-15T19:40:44.478Z,18.80
2022-11-15T19:45:52.333Z,18.70
2022-11-15T19:50:54.107Z,18.70
2022-11-15T19:55:56.578Z,18.70
2022-11-15T20:01:03.334Z,18.70
2022-11-15T20:06:06.531Z,18.60
2022-11-15T20:11:08.450Z,18.60
2022-11-15T20:16:14.702Z,18.70
2022-11-15T20:21:16.728Z,18.70
2022-11-15T20:26:18.906Z,18.70
2022-11-15T20:31:21.829Z,18.60
2022-11-15T20:36:23.732Z,18.60
2022-11-15T20:41:25.767Z,18.70
2022-11-15T20:46:27.400Z,18.80
2022-11-15T20:51:29.027Z,18.70
2022-11-15T20:56:30.748Z,18.60
2022-11-15T21:01:32.988Z,18.50
2022-11-15T21:06:34.832Z,18.40
2022-11-15T21:11:55.654Z,18.30
2022-11-15T21:16:57.636Z,18.10
2022-11-15T21:21:59.763Z,18.10
2022-11-15T21:27:01.480Z,18.00
2022-11-15T21:32:07.014Z,17.90
2022-11-15T21:37:10.558Z,17.80
2022-11-15T21:42:12.254Z,17.80
2022-11-15T21:47:13.960Z,17.70
2022-11-15T21:52:15.593Z,17.60
2022-11-15T21:57:18.933Z,17.60
2022-11-15T22:02:20.646Z,17.50
2022-11-15T22:07:22.324Z,17.50
2022-11-15T22:12:29.390Z,17.40
2022-11-15T22:17:49.987Z,17.40
2022-11-15T22:22:51.669Z,17.30
2022-11-15T22:27:53.367Z,17.30
2022-11-15T22:32:55.081Z,17.30
2022-11-15T22:37:56.825Z,17.20
2022-11-15T22:42:58.633Z,17.20
2022-11-15T22:48:00.571Z,17.20
2022-11-15T22:53:02.179Z,17.20
2022-11-15T22:58:03.983Z,17.20
2022-11-15T23:03:05.682Z,17.10
2022-11-15T23:08:07.368Z,17.10
2022-11-15T23:13:17.898Z,17.10
2022-11-15T23:18:19.579Z,17.10
2022-11-15T23:23:21.267Z,17.10
2022-11-15T23:28:22.914Z,17.00
2022-11-15T23:33:43.175Z,17.00
2022-11-15T23:38:44.792Z,17.00
2022-11-15T23:43:46.836Z,17.00
2022-11-15T23:48:48.533Z,16.90
2022-11-15T23:53:50.241Z,16.90
2022-11-15T23:58:52.017Z,16.90
